createdAt,value
2022-08-25T00:00:35.336Z,100.00
2022-08-25T00:03:04.066Z,100.00
2022-08-25T00:05:33.719Z,100.00
2022-08-25T00:08:06.465Z,100.00
2022-08-25T00:10:37.978Z,100.00
2022-08-25T00:13:07.003Z,100.00
2022-08-25T00:15:36.519Z,100.00
2022-08-25T00:18:05.716Z,100.00
2022-08-25T00:20:49.103Z,100.00
2022-08-25T00:23:19.383Z,100.00
2022-08-25T00:25:48.814Z,100.00
2022-08-25T00:28:18.213Z,100.00
2022-08-25T00:30:46.730Z,100.00
2022-08-25T00:33:15.330Z,100.00
2022-08-25T00:35:45.027Z,100.00
2022-08-25T00:38:14.266Z,100.00
2022-08-25T00:40:44.966Z,100.00
2022-08-25T00:43:14.301Z,100.00
2022-08-25T00:45:42.971Z,100.00
2022-08-25T00:48:11.527Z,100.00
2022-08-25T00:50:40.053Z,100.00
2022-08-25T00:53:09.962Z,100.00
2022-08-25T00:55:42.358Z,100.00
2022-08-25T00:58:17.324Z,100.00
2022-08-25T01:00:49.238Z,100.00
2022-08-25T01:03:19.350Z,100.00
2022-08-25T01:05:49.163Z,100.00
2022-08-25T01:08:21.340Z,100.00
2022-08-25T01:10:51.890Z,100.00
2022-08-25T01:13:27.988Z,100.00
2022-08-25T01:15:59.091Z,100.00
2022-08-25T01:18:28.554Z,100.00
2022-08-25T01:21:00.073Z,100.00
2022-08-25T01:23:28.944Z,100.00
2022-08-25T01:26:03.113Z,100.00
2022-08-25T01:28:32.417Z,100.00
2022-08-25T01:31:01.812Z,100.00
2022-08-25T01:33:30.387Z,100.00
2022-08-25T01:36:00.224Z,100.00
2022-08-25T01:38:28.749Z,100.00
2022-08-25T01:40:57.270Z,100.00
2022-08-25T01:43:33.817Z,100.00
2022-08-25T01:46:02.556Z,100.00
2022-08-25T01:48:32.975Z,100.00
2022-08-25T01:51:02.938Z,100.00
2022-08-25T01:53:33.864Z,100.00
2022-08-25T01:56:11.824Z,100.00
2022-08-25T01:58:43.056Z,100.00
2022-08-25T02:01:17.784Z,100.00
2022-08-25T02:03:49.941Z,100.00
2022-08-25T02:06:27.670Z,100.00
2022-08-25T02:09:01.395Z,100.00
2022-08-25T02:11:30.487Z,100.00
2022-08-25T02:14:00.085Z,100.00
2022-08-25T02:16:32.231Z,100.00
2022-08-25T02:19:01.213Z,100.00
2022-08-25T02:21:32.817Z,100.00
2022-08-25T02:24:01.534Z,100.00
2022-08-25T02:26:30.857Z,100.00
2022-08-25T02:28:59.421Z,100.00
2022-08-25T02:31:28.742Z,100.00
2022-08-25T02:33:57.836Z,100.00
2022-08-25T02:36:27.043Z,100.00
2022-08-25T02:38:57.269Z,100.00
2022-08-25T02:41:30.967Z,100.00
2022-08-25T02:44:01.675Z,100.00
2022-08-25T02:46:31.285Z,100.00
2022-08-25T02:49:00.221Z,100.00
2022-08-25T02:51:30.368Z,100.00
2022-08-25T02:54:02.940Z,100.00
2022-08-25T02:56:31.801Z,100.00
2022-08-25T02:59:00.295Z,100.00
2022-08-25T03:01:30.331Z,100.00
2022-08-25T03:03:59.318Z,100.00
2022-08-25T03:06:28.329Z,100.00
2022-08-25T03:08:57.427Z,100.00
2022-08-25T03:11:27.562Z,100.00
2022-08-25T03:14:07.163Z,100.00
2022-08-25T03:16:36.131Z,100.00
2022-08-25T03:19:05.664Z,100.00
2022-08-25T03:21:34.620Z,100.00
2022-08-25T03:24:03.540Z,100.00
2022-08-25T03:26:51.304Z,100.00
2022-08-25T03:29:20.300Z,100.00
2022-08-25T03:31:49.344Z,100.00
2022-08-25T03:34:20.324Z,100.00
2022-08-25T03:36:53.504Z,100.00
2022-08-25T03:39:23.896Z,100.00
2022-08-25T03:41:54.437Z,100.00
2022-08-25T03:44:24.239Z,100.00
2022-08-25T03:46:53.541Z,100.00
2022-08-25T03:49:24.834Z,100.00
2022-08-25T03:51:55.628Z,100.00
2022-08-25T03:54:26.870Z,100.00
2022-08-25T03:56:56.977Z,100.00
2022-08-25T03:59:27.283Z,100.00
2022-08-25T04:05:06.569Z,100.00
2022-08-25T04:07:35.467Z,100.00
2022-08-25T04:10:04.190Z,100.00
2022-08-25T04:12:34.465Z,100.00
2022-08-25T04:15:03.210Z,100.00
2022-08-25T04:17:31.756Z,100.00
2022-08-25T04:20:00.519Z,100.00
2022-08-25T04:22:29.346Z,100.00
2022-08-25T04:25:00.234Z,100.00
2022-08-25T04:27:29.391Z,100.00
2022-08-25T04:29:59.553Z,100.00
2022-08-25T04:32:28.129Z,100.00
2022-08-25T04:34:56.923Z,100.00
2022-08-25T04:37:25.438Z,100.00
2022-08-25T04:39:54.154Z,100.00
2022-08-25T04:42:23.170Z,100.00
2022-08-25T04:44:51.772Z,100.00
2022-08-25T04:47:21.920Z,100.00
2022-08-25T04:49:50.461Z,100.00
2022-08-25T04:52:19.349Z,100.00
2022-08-25T04:54:48.450Z,100.00
2022-08-25T04:57:17.014Z,100.00
2022-08-25T04:59:45.897Z,100.00
2022-08-25T05:02:15.166Z,100.00
2022-08-25T05:04:45.566Z,100.00
2022-08-25T05:07:14.601Z,100.00
2022-08-25T05:09:43.373Z,100.00
2022-08-25T05:12:12.273Z,100.00
2022-08-25T05:14:41.634Z,100.00
2022-08-25T05:17:10.447Z,100.00
2022-08-25T05:19:39.244Z,100.00
2022-08-25T05:22:10.460Z,100.00
2022-08-25T05:24:39.241Z,100.00
2022-08-25T05:27:07.927Z,100.00
2022-08-25T05:29:37.115Z,100.00
2022-08-25T05:32:06.243Z,100.00
2022-08-25T05:34:34.980Z,100.00
2022-08-25T05:37:05.958Z,100.00
2022-08-25T05:39:37.552Z,100.00
2022-08-25T05:42:07.005Z,100.00
2022-08-25T05:44:35.780Z,100.00
2022-08-25T05:47:05.219Z,100.00
2022-08-25T05:49:34.236Z,100.00
2022-08-25T05:52:03.038Z,100.00
2022-08-25T05:54:33.893Z,100.00
2022-08-25T05:57:04.388Z,100.00
2022-08-25T05:59:33.132Z,100.00
2022-08-25T06:02:19.400Z,100.00
2022-08-25T06:04:48.610Z,100.00
2022-08-25T06:07:17.452Z,100.00
2022-08-25T06:09:49.191Z,100.00
2022-08-25T06:12:21.891Z,100.00
2022-08-25T06:14:50.808Z,100.00
2022-08-25T06:17:19.782Z,100.00
2022-08-25T06:19:48.541Z,100.00
2022-08-25T06:22:17.358Z,100.00
2022-08-25T06:24:46.288Z,100.00
2022-08-25T06:27:15.381Z,100.00
2022-08-25T06:29:46.184Z,100.00
2022-08-25T06:32:15.337Z,100.00
2022-08-25T06:34:44.095Z,100.00
2022-08-25T06:37:13.033Z,100.00
2022-08-25T06:39:42.303Z,100.00
2022-08-25T06:42:11.299Z,100.00
2022-08-25T06:44:41.338Z,100.00
2022-08-25T06:47:11.802Z,100.00
2022-08-25T06:49:40.600Z,100.00
2022-08-25T06:52:09.960Z,100.00
2022-08-25T06:54:38.936Z,100.00
2022-08-25T06:57:08.973Z,100.00
2022-08-25T06:59:38.970Z,100.00
2022-08-25T07:02:12.237Z,100.00
2022-08-25T07:04:41.161Z,100.00
2022-08-25T07:07:10.230Z,100.00
2022-08-25T07:09:39.354Z,100.00
2022-08-25T07:12:09.060Z,100.00
2022-08-25T07:14:38.242Z,100.00
2022-08-25T07:17:11.055Z,100.00
2022-08-25T07:19:43.352Z,100.00
2022-08-25T07:22:13.149Z,100.00
2022-08-25T07:24:42.839Z,100.00
2022-08-25T07:27:11.804Z,100.00
2022-08-25T07:29:42.221Z,100.00
2022-08-25T07:32:12.093Z,100.00
2022-08-25T07:34:59.587Z,100.00
2022-08-25T07:37:48.186Z,100.00
2022-08-25T07:40:20.230Z,100.00
2022-08-25T07:42:50.929Z,100.00
2022-08-25T07:45:25.576Z,100.00
2022-08-25T07:47:54.736Z,100.00
2022-08-25T07:50:25.470Z,100.00
2022-08-25T07:52:55.156Z,98.88
2022-08-25T07:55:26.178Z,95.93
2022-08-25T07:57:57.522Z,94.71
2022-08-25T08:00:28.517Z,99.06
2022-08-25T08:03:07.014Z,100.00
2022-08-25T08:05:41.672Z,100.00
2022-08-25T08:08:10.457Z,100.00
2022-08-25T08:11:04.025Z,98.60
2022-08-25T08:13:33.172Z,95.39
2022-08-25T08:16:09.561Z,96.02
2022-08-25T08:18:39.897Z,97.90
2022-08-25T08:21:13.275Z,99.14
2022-08-25T08:23:49.308Z,99.01
2022-08-25T08:26:19.288Z,97.80
2022-08-25T08:28:51.828Z,92.77
2022-08-25T08:31:21.477Z,82.77
2022-08-25T08:33:51.376Z,71.50
2022-08-25T08:36:21.705Z,69.03
2022-08-25T08:38:54.383Z,64.97
2022-08-25T08:42:12.496Z,62.15
2022-08-25T08:44:58.030Z,56.70
2022-08-25T08:47:38.404Z,53.33
2022-08-25T08:50:23.120Z,53.72
2022-08-25T08:53:02.006Z,53.77
2022-08-25T08:55:35.047Z,52.69
2022-08-25T08:58:08.686Z,47.89
2022-08-25T09:00:41.674Z,45.71
2022-08-25T09:03:34.871Z,44.02
2022-08-25T09:06:07.184Z,41.90
2022-08-25T09:08:39.148Z,41.83
2022-08-25T09:11:24.398Z,40.74
2022-08-25T09:14:10.698Z,40.24
2022-08-25T09:16:58.251Z,41.11
2022-08-25T09:19:43.463Z,40.83
2022-08-25T09:22:35.995Z,39.59
2022-08-25T09:25:21.930Z,39.21
2022-08-25T09:28:08.237Z,38.10
2022-08-25T09:30:46.442Z,38.12
2022-08-25T09:33:20.937Z,38.36
2022-08-25T09:35:51.874Z,41.71
2022-08-25T09:38:22.851Z,39.91
2022-08-25T09:40:56.962Z,38.27
2022-08-25T09:43:33.291Z,38.62
2022-08-25T09:46:10.724Z,37.85
2022-08-25T09:48:46.506Z,38.93
2022-08-25T09:51:22.021Z,37.44
2022-08-25T09:53:56.218Z,37.85
2022-08-25T09:56:28.803Z,36.12
2022-08-25T09:59:03.086Z,35.43
2022-08-25T10:01:34.992Z,35.27
2022-08-25T10:04:05.899Z,34.88
2022-08-25T10:06:45.578Z,36.17
2022-08-25T10:09:26.905Z,34.79
2022-08-25T10:12:00.120Z,32.81
2022-08-25T10:14:36.383Z,32.84
2022-08-25T10:17:27.614Z,32.55
2022-08-25T10:20:17.358Z,32.61
2022-08-25T10:22:48.189Z,31.70
2022-08-25T10:25:27.092Z,31.87
2022-08-25T10:28:12.583Z,32.95
2022-08-25T10:31:00.475Z,32.82
2022-08-25T10:33:39.220Z,32.89
2022-08-25T10:36:16.402Z,33.33
2022-08-25T10:38:55.365Z,34.49
2022-08-25T10:41:41.028Z,34.11
2022-08-25T10:44:37.326Z,38.13
2022-08-25T10:47:28.939Z,38.07
2022-08-25T10:50:05.512Z,41.52
2022-08-25T10:52:45.246Z,41.03
2022-08-25T10:55:20.079Z,41.05
2022-08-25T10:57:57.614Z,41.38
2022-08-25T11:00:35.380Z,40.73
2022-08-25T11:03:25.508Z,42.76
2022-08-25T11:06:01.733Z,39.27
2022-08-25T11:08:36.545Z,40.42
2022-08-25T11:11:10.883Z,39.75
2022-08-25T11:13:45.198Z,37.68
2022-08-25T11:16:20.213Z,35.14
2022-08-25T11:18:56.191Z,34.34
2022-08-25T11:21:31.373Z,35.44
2022-08-25T11:24:09.409Z,40.72
2022-08-25T11:26:43.168Z,43.75
2022-08-25T11:29:16.635Z,43.22
2022-08-25T11:31:53.308Z,47.10
2022-08-25T11:34:23.579Z,41.84
2022-08-25T11:36:56.037Z,40.32
2022-08-25T11:39:40.212Z,37.76
2022-08-25T11:42:22.923Z,37.02
2022-08-25T11:45:03.968Z,36.71
2022-08-25T11:47:55.780Z,37.08
2022-08-25T11:50:31.407Z,42.61
2022-08-25T11:53:16.955Z,44.38
2022-08-25T11:55:50.241Z,43.98
2022-08-25T11:58:32.822Z,41.88
2022-08-25T12:01:03.430Z,44.75
2022-08-25T12:03:53.344Z,46.40
2022-08-25T12:06:29.703Z,47.04
2022-08-25T12:09:22.790Z,49.73
2022-08-25T12:11:59.467Z,50.85
2022-08-25T12:14:46.383Z,53.33
2022-08-25T12:17:25.497Z,54.28
2022-08-25T12:20:01.705Z,55.47
2022-08-25T12:22:55.417Z,58.89
2022-08-25T12:25:47.667Z,60.04
2022-08-25T12:28:39.183Z,59.73
2022-08-25T12:31:19.309Z,62.12
2022-08-25T12:34:04.628Z,61.76
2022-08-25T12:36:35.741Z,66.06
2022-08-25T12:39:24.500Z,73.08
2022-08-25T12:41:57.278Z,78.64
2022-08-25T12:44:41.262Z,80.01
2022-08-25T12:47:28.228Z,80.01
2022-08-25T12:50:33.355Z,80.80
2022-08-25T12:53:12.495Z,79.09
2022-08-25T12:55:47.828Z,76.88
2022-08-25T12:58:17.949Z,75.99
2022-08-25T13:01:09.315Z,74.19
2022-08-25T13:04:14.088Z,72.04
2022-08-25T13:06:57.116Z,70.06
2022-08-25T13:10:02.054Z,70.95
2022-08-25T13:12:39.136Z,71.34
2022-08-25T13:15:14.303Z,70.91
2022-08-25T13:17:43.936Z,67.68
2022-08-25T13:20:19.999Z,67.93
2022-08-25T13:22:55.262Z,66.02
2022-08-25T13:25:32.019Z,66.55
2022-08-25T13:28:04.374Z,67.37
2022-08-25T13:30:36.504Z,70.83
2022-08-25T13:33:20.125Z,69.29
2022-08-25T13:35:50.317Z,67.83
2022-08-25T13:38:20.064Z,66.62
2022-08-25T13:40:50.799Z,65.40
2022-08-25T13:43:22.521Z,66.01
2022-08-25T13:45:56.844Z,67.26
2022-08-25T13:48:35.160Z,67.63
2022-08-25T13:51:22.627Z,66.75
2022-08-25T13:53:59.098Z,67.32
2022-08-25T13:56:40.693Z,66.30
2022-08-25T13:59:23.135Z,65.41
2022-08-25T14:01:54.398Z,65.14
2022-08-25T14:04:33.062Z,65.18
2022-08-25T14:07:25.135Z,64.27
2022-08-25T14:09:55.918Z,63.33
2022-08-25T14:12:39.696Z,64.38
2022-08-25T14:15:31.995Z,64.75
2022-08-25T14:18:05.640Z,65.13
2022-08-25T14:20:37.474Z,64.67
2022-08-25T14:23:10.253Z,65.45
2022-08-25T14:25:40.478Z,64.76
2022-08-25T14:28:15.553Z,64.75
2022-08-25T14:30:49.465Z,64.90
2022-08-25T14:33:23.840Z,66.11
2022-08-25T14:35:55.571Z,70.66
2022-08-25T14:38:25.956Z,69.74
2022-08-25T14:40:55.002Z,70.45
2022-08-25T14:43:31.467Z,68.61
2022-08-25T14:46:02.600Z,69.81
2022-08-25T14:48:37.209Z,68.64
2022-08-25T14:51:06.381Z,70.77
2022-08-25T14:53:35.299Z,71.33
2022-08-25T14:56:06.883Z,71.38
2022-08-25T14:58:48.470Z,72.54
2022-08-25T15:01:29.264Z,73.31
2022-08-25T15:04:03.771Z,72.96
2022-08-25T15:06:32.840Z,73.53
2022-08-25T15:09:11.166Z,73.20
2022-08-25T15:11:42.476Z,74.71
2022-08-25T15:14:15.849Z,74.16
2022-08-25T15:16:49.467Z,75.23
2022-08-25T15:19:20.346Z,74.17
2022-08-25T15:21:49.782Z,73.85
2022-08-25T15:24:19.928Z,75.40
2022-08-25T15:29:29.919Z,75.36
2022-08-25T15:32:00.320Z,76.13
2022-08-25T15:34:29.389Z,77.59
2022-08-25T15:36:59.177Z,76.99
2022-08-25T15:39:27.877Z,76.66
2022-08-25T15:41:57.293Z,76.06
2022-08-25T15:44:29.730Z,75.69
2022-08-25T15:46:59.488Z,76.86
2022-08-25T15:49:31.231Z,76.07
2022-08-25T15:52:00.422Z,76.94
2022-08-25T15:54:30.364Z,75.87
2022-08-25T15:56:59.934Z,75.50
2022-08-25T15:59:30.783Z,76.90
2022-08-25T16:02:00.558Z,77.46
2022-08-25T16:04:30.314Z,77.18
2022-08-25T16:07:01.346Z,76.03
2022-08-25T16:09:31.403Z,77.48
2022-08-25T16:12:05.396Z,76.70
2022-08-25T16:14:36.827Z,77.98
2022-08-25T16:17:06.919Z,76.10
2022-08-25T16:19:35.748Z,76.93
2022-08-25T16:22:08.900Z,77.93
2022-08-25T16:24:42.139Z,77.27
2022-08-25T16:27:12.165Z,77.48
2022-08-25T16:29:44.354Z,77.54
2022-08-25T16:32:14.301Z,76.40
2022-08-25T16:34:44.248Z,75.63
2022-08-25T16:37:13.751Z,75.46
2022-08-25T16:39:46.145Z,76.56
2022-08-25T16:42:15.362Z,75.13
2022-08-25T16:44:45.253Z,73.61
2022-08-25T16:47:14.426Z,73.30
2022-08-25T16:49:47.025Z,72.75
2022-08-25T16:52:33.509Z,74.50
2022-08-25T16:55:14.435Z,75.54
2022-08-25T16:57:45.500Z,73.63
2022-08-25T17:00:22.013Z,75.43
2022-08-25T17:02:51.643Z,74.47
2022-08-25T17:05:20.325Z,74.22
2022-08-25T17:08:09.074Z,74.08
2022-08-25T17:10:41.282Z,73.39
2022-08-25T17:13:10.849Z,71.60
2022-08-25T17:15:43.989Z,71.08
2022-08-25T17:18:13.983Z,72.39
2022-08-25T17:20:44.777Z,73.13
2022-08-25T17:23:14.375Z,72.38
2022-08-25T17:25:44.027Z,70.98
2022-08-25T17:28:13.236Z,71.38
2022-08-25T17:30:43.627Z,74.51
2022-08-25T17:33:12.519Z,76.19
2022-08-25T17:35:41.998Z,77.44
2022-08-25T17:38:10.815Z,78.04
2022-08-25T17:40:40.154Z,78.18
2022-08-25T17:43:09.756Z,78.46
2022-08-25T17:45:39.341Z,78.36
2022-08-25T17:48:10.381Z,79.82
2022-08-25T17:50:39.426Z,80.30
2022-08-25T17:53:09.370Z,81.19
2022-08-25T17:55:38.574Z,82.27
2022-08-25T17:58:07.128Z,84.01
2022-08-25T18:00:42.882Z,83.73
2022-08-25T18:03:14.310Z,85.86
2022-08-25T18:05:44.202Z,87.37
2022-08-25T18:08:14.659Z,88.35
2022-08-25T18:10:44.035Z,89.54
2022-08-25T18:13:12.961Z,89.70
2022-08-25T18:15:43.746Z,91.56
2022-08-25T18:18:14.415Z,93.55
2022-08-25T18:20:46.624Z,94.81
2022-08-25T18:23:15.758Z,96.25
2022-08-25T18:25:44.854Z,96.67
2022-08-25T18:28:13.615Z,97.95
2022-08-25T18:30:43.352Z,98.93
2022-08-25T18:33:13.834Z,99.20
2022-08-25T18:35:42.894Z,100.00
2022-08-25T18:38:28.695Z,100.00
2022-08-25T18:40:58.691Z,100.00
2022-08-25T18:43:31.258Z,100.00
2022-08-25T18:46:04.688Z,100.00
2022-08-25T18:48:35.023Z,100.00
2022-08-25T18:51:04.554Z,100.00
2022-08-25T18:53:49.539Z,100.00
2022-08-25T18:56:18.872Z,100.00
2022-08-25T18:58:47.927Z,100.00
2022-08-25T19:01:16.891Z,100.00
2022-08-25T19:03:48.439Z,100.00
2022-08-25T19:06:17.181Z,100.00
2022-08-25T19:08:48.090Z,100.00
2022-08-25T19:11:17.519Z,100.00
2022-08-25T19:13:51.629Z,100.00
2022-08-25T19:16:32.471Z,100.00
2022-08-25T19:19:04.331Z,100.00
2022-08-25T19:21:35.593Z,100.00
2022-08-25T19:24:04.509Z,100.00
2022-08-25T19:26:35.903Z,100.00
2022-08-25T19:29:09.613Z,100.00
2022-08-25T19:31:39.331Z,100.00
2022-08-25T19:34:11.094Z,100.00
2022-08-25T19:36:39.965Z,100.00
2022-08-25T19:39:12.802Z,100.00
2022-08-25T19:41:42.130Z,100.00
2022-08-25T19:44:12.525Z,100.00
2022-08-25T19:46:43.080Z,100.00
2022-08-25T19:49:16.334Z,100.00
2022-08-25T19:51:51.043Z,100.00
2022-08-25T19:54:24.177Z,100.00
2022-08-25T19:56:54.464Z,100.00
2022-08-25T19:59:25.801Z,100.00
2022-08-25T20:01:55.167Z,100.00
2022-08-25T20:04:25.274Z,100.00
2022-08-25T20:06:55.314Z,100.00
2022-08-25T20:09:38.992Z,100.00
2022-08-25T20:12:11.968Z,100.00
2022-08-25T20:14:41.439Z,100.00
2022-08-25T20:17:23.855Z,100.00
2022-08-25T20:19:57.331Z,100.00
2022-08-25T20:22:27.165Z,100.00
2022-08-25T20:24:57.943Z,100.00
2022-08-25T20:27:34.822Z,100.00
2022-08-25T20:30:05.335Z,100.00
2022-08-25T20:32:35.745Z,100.00
2022-08-25T20:35:09.297Z,100.00
2022-08-25T20:37:42.074Z,100.00
2022-08-25T20:40:12.143Z,100.00
2022-08-25T20:42:40.779Z,100.00
2022-08-25T20:45:13.574Z,100.00
2022-08-25T20:47:44.631Z,100.00
2022-08-25T20:50:15.115Z,100.00
2022-08-25T20:52:44.084Z,100.00
2022-08-25T20:55:13.965Z,100.00
2022-08-25T20:57:42.474Z,100.00
2022-08-25T21:00:12.915Z,100.00
2022-08-25T21:02:41.499Z,100.00
2022-08-25T21:05:10.450Z,100.00
2022-08-25T21:07:40.737Z,100.00
2022-08-25T21:10:14.074Z,100.00
2022-08-25T21:12:43.334Z,100.00
2022-08-25T21:15:13.148Z,100.00
2022-08-25T21:17:51.410Z,100.00
2022-08-25T21:20:21.222Z,100.00
2022-08-25T21:22:51.606Z,100.00
2022-08-25T21:25:22.067Z,100.00
2022-08-25T21:27:50.616Z,100.00
2022-08-25T21:30:19.306Z,100.00
2022-08-25T21:32:52.886Z,100.00
2022-08-25T21:35:23.337Z,100.00
2022-08-25T21:37:53.815Z,100.00
2022-08-25T21:40:23.390Z,100.00
2022-08-25T21:42:52.415Z,100.00
2022-08-25T21:45:21.667Z,100.00
2022-08-25T21:47:51.984Z,100.00
2022-08-25T21:50:21.353Z,100.00
2022-08-25T21:52:54.516Z,100.00
2022-08-25T21:55:25.195Z,100.00
2022-08-25T21:57:54.861Z,100.00
2022-08-25T22:00:24.111Z,100.00
2022-08-25T22:02:53.749Z,100.00
2022-08-25T22:05:22.436Z,100.00
2022-08-25T22:07:50.887Z,100.00
2022-08-25T22:10:20.857Z,100.00
2022-08-25T22:12:50.765Z,100.00
2022-08-25T22:15:20.457Z,100.00
2022-08-25T22:17:49.448Z,100.00
2022-08-25T22:20:19.796Z,100.00
2022-08-25T22:22:48.933Z,100.00
2022-08-25T22:25:18.358Z,100.00
2022-08-25T22:27:48.027Z,100.00
2022-08-25T22:30:27.666Z,100.00
2022-08-25T22:32:59.646Z,100.00
2022-08-25T22:35:28.711Z,100.00
2022-08-25T22:37:57.202Z,100.00
2022-08-25T22:40:27.173Z,100.00
2022-08-25T22:42:57.675Z,100.00
2022-08-25T22:45:29.286Z,100.00
2022-08-25T22:47:57.941Z,100.00
2022-08-25T22:50:27.385Z,100.00
2022-08-25T22:52:56.138Z,100.00
2022-08-25T22:55:24.802Z,100.00
2022-08-25T22:57:56.691Z,100.00
2022-08-25T23:00:25.631Z,100.00
2022-08-25T23:02:56.222Z,100.00
2022-08-25T23:05:24.799Z,100.00
2022-08-25T23:07:53.295Z,100.00
2022-08-25T23:10:22.921Z,100.00
2022-08-25T23:12:51.749Z,100.00
2022-08-25T23:15:20.432Z,100.00
2022-08-25T23:17:50.076Z,100.00
2022-08-25T23:20:37.942Z,100.00
2022-08-25T23:23:14.057Z,100.00
2022-08-25T23:25:42.811Z,100.00
2022-08-25T23:28:11.341Z,100.00
2022-08-25T23:30:40.104Z,100.00
2022-08-25T23:33:15.212Z,100.00
2022-08-25T23:35:50.690Z,100.00
2022-08-25T23:38:19.185Z,100.00
2022-08-25T23:40:48.112Z,100.00
2022-08-25T23:43:16.591Z,100.00
2022-08-25T23:45:46.565Z,100.00
2022-08-25T23:48:15.343Z,100.00
2022-08-25T23:50:54.019Z,100.00
2022-08-25T23:53:22.857Z,100.00
2022-08-25T23:55:53.046Z,100.00
2022-08-25T23:58:22.717Z,100.00
